Accueil
Images satellite Prévisions 15 joursClimatMétéo marine Cyclones Foudre AéroportsFAQ Actualités A propos
Météo : Europe Afrique Amérique du Nord Amérique du Sud Asie Australie-Océanie Autres
Langues Contact

Carcassonne, France

Salvaza

latitude: 43-13N, longitude: 002-19E, altitude: 130 m


METAR: LFMK 231430Z AUTO 29012KT 9999 NSC 22/06 Q1017
short-TAF: périmé (5406 heures)
long-TAF: LFMK 231100Z 2312/2412 VRB02KT 9999 NSC BECMG 2318/2320 30012KT TEMPO 2320/2406 BKN012 BECMG 2409/2411 08012KT

Heure: 16:48 (14:48 UTC)

Observation

Le bulletin a été fait il y a 18 minutes, à 14:30 UTC  
Vent 12 kt de ouest/nord-ouest
Température 22°C
Humidité 35%
Pression 1017 hPa
Visibilité 10 km ou plus

Changer d'unités

Prévision

Le bulletin a été fait il y a 3 heures et 33 minutes, à 11:15 UTC  
Prévision valable du 23 à 12 UTC au 24 à 12 UTC
Vent 02 kt de direction variable
Visibilité 10 km ou plus
Evoluant progressivement
du 23 à 18 UTC au 23 à 20 UTC
Vent 12 kt de ouest/nord-ouest
Temporairement
du 23 à 20 UTC au 24 à 06 UTC
Nuages fragmentés à une hauteur de 1200 ft
Evoluant progressivement
du 24 à 09 UTC au 24 à 11 UTC
Vent 12 kt de est
Les informations qui figurent sur ce site font l'objet d'une clause de non-responsabilité
Météo : Europe Afrique Amérique du Nord Amérique du Sud Asie Australie-Océanie Autres
Images satellite Prévisions 15 joursClimatMétéo marine Cyclones Foudre AéroportsFAQ Langues Contact Actualités A propos